createdAt,value
2022-11-26T00:00:40.749Z,784.62
2022-11-26T00:01:40.769Z,784.53
2022-11-26T00:02:40.856Z,785.44
2022-11-26T00:03:40.826Z,784.94
2022-11-26T00:04:40.756Z,785.12
2022-11-26T00:05:40.749Z,785.59
2022-11-26T00:06:40.771Z,785.62
2022-11-26T00:07:40.820Z,786.04
2022-11-26T00:08:40.753Z,785.42
2022-11-26T00:09:40.764Z,784.96
2022-11-26T00:10:40.762Z,785.02
2022-11-26T00:11:40.780Z,785
2022-11-26T00:12:40.762Z,784.84
2022-11-26T00:13:40.773Z,784.68
2022-11-26T00:14:40.789Z,784.76
2022-11-26T00:15:40.764Z,784.26
2022-11-26T00:16:40.840Z,784.08
2022-11-26T00:17:40.767Z,783.51
2022-11-26T00:18:40.774Z,783.38
2022-11-26T00:19:40.774Z,782.87
2022-11-26T00:20:40.787Z,783.32
2022-11-26T00:21:40.798Z,782.89
2022-11-26T00:22:40.777Z,782.42
2022-11-26T00:23:40.769Z,781.99
2022-11-26T00:24:43.892Z,782.04
2022-11-26T00:25:40.780Z,781.85
2022-11-26T00:26:40.805Z,781.72
2022-11-26T00:27:40.780Z,781.25
2022-11-26T00:28:40.785Z,780.86
2022-11-26T00:29:40.778Z,780.87
2022-11-26T00:30:40.812Z,780.99
2022-11-26T00:31:40.838Z,780.58
2022-11-26T00:32:40.795Z,780.73
2022-11-26T00:33:40.790Z,780.72
2022-11-26T00:34:40.791Z,780.25
2022-11-26T00:35:43.627Z,780.74
2022-11-26T00:36:40.813Z,780.27
2022-11-26T00:37:40.792Z,779.96
2022-11-26T00:38:40.798Z,780.14
2022-11-26T00:39:40.804Z,780.27
2022-11-26T00:40:40.791Z,780.13
2022-11-26T00:41:40.828Z,779.82
2022-11-26T00:42:40.804Z,779.81
2022-11-26T00:43:40.802Z,779.15
2022-11-26T00:44:40.911Z,778.99
2022-11-26T00:45:40.817Z,778.99
2022-11-26T00:46:44.258Z,778.44
2022-11-26T00:47:40.813Z,778.48
2022-11-26T00:48:40.856Z,778.53
2022-11-26T00:49:40.813Z,778.78
2022-11-26T00:50:40.810Z,778.95
2022-11-26T00:51:40.808Z,778.98
2022-11-26T00:52:40.832Z,778.91
2022-11-26T00:53:40.810Z,779.47
2022-11-26T00:54:40.816Z,779.39
2022-11-26T00:55:40.818Z,780.12
2022-11-26T00:56:40.815Z,780.58
2022-11-26T00:57:43.567Z,780.87
2022-11-26T00:58:40.825Z,781.52
2022-11-26T00:59:40.821Z,782
2022-11-26T01:00:40.883Z,782.19
2022-11-26T01:01:40.904Z,782.42
2022-11-26T01:02:40.876Z,782.95
2022-11-26T01:03:40.826Z,782.82
2022-11-26T01:04:40.857Z,783.16
2022-11-26T01:05:40.826Z,783.32
2022-11-26T01:06:40.828Z,784.39
2022-11-26T01:07:40.925Z,783.5
2022-11-26T01:08:40.833Z,783.96
2022-11-26T01:09:40.835Z,783.87
2022-11-26T01:10:40.831Z,784.33
2022-11-26T01:11:40.831Z,784.48
2022-11-26T01:12:40.837Z,785
2022-11-26T01:13:40.841Z,784.57
2022-11-26T01:14:40.928Z,785.1
2022-11-26T01:15:40.850Z,785.35
2022-11-26T01:16:40.875Z,785.28
2022-11-26T01:17:40.840Z,785.79
2022-11-26T01:18:40.865Z,786.33
2022-11-26T01:19:40.849Z,786.29
2022-11-26T01:20:40.850Z,786.62
2022-11-26T01:21:40.857Z,786.81
2022-11-26T01:22:40.851Z,786.97
2022-11-26T01:23:40.860Z,786.21
2022-11-26T01:24:43.845Z,786.98
2022-11-26T01:25:40.863Z,787.75
2022-11-26T01:26:40.851Z,787.6
2022-11-26T01:27:40.853Z,788.31
2022-11-26T01:28:40.852Z,788.16
2022-11-26T01:29:43.878Z,787.71
2022-11-26T01:30:40.856Z,788.35
2022-11-26T01:31:40.939Z,788.46
2022-11-26T01:32:40.871Z,788.67
2022-11-26T01:33:40.873Z,788.96
2022-11-26T01:34:41.065Z,789.13
2022-11-26T01:35:40.879Z,788.97
2022-11-26T01:36:40.896Z,789.43
2022-11-26T01:37:40.875Z,789.24
2022-11-26T01:38:40.866Z,790.19
2022-11-26T01:39:40.873Z,790.23
2022-11-26T01:40:43.643Z,789.45
2022-11-26T01:41:40.875Z,789.76
2022-11-26T01:42:40.880Z,790.09
2022-11-26T01:43:40.885Z,789.55
2022-11-26T01:44:41.277Z,789.19
2022-11-26T01:45:40.901Z,789.99
2022-11-26T01:46:40.887Z,789.57
2022-11-26T01:47:40.884Z,789.74
2022-11-26T01:48:40.878Z,788.77
2022-11-26T01:49:40.881Z,788.21
2022-11-26T01:50:40.907Z,787.99
2022-11-26T01:51:40.882Z,787.95
2022-11-26T01:52:40.884Z,787.15
2022-11-26T01:53:40.892Z,787.94
2022-11-26T01:54:40.996Z,788.14
2022-11-26T01:55:40.944Z,788.36
2022-11-26T01:56:40.889Z,788.69
2022-11-26T01:57:40.897Z,788.97
2022-11-26T01:58:40.898Z,789.27
2022-11-26T01:59:40.893Z,789.29
2022-11-26T02:00:40.999Z,789.67
2022-11-26T02:01:40.984Z,789.9
2022-11-26T02:02:41.003Z,790.29
2022-11-26T02:03:40.915Z,791.18
2022-11-26T02:04:41.020Z,791.02
2022-11-26T02:05:40.900Z,791.38
2022-11-26T02:06:41.067Z,791.34
2022-11-26T02:07:40.968Z,791.67
2022-11-26T02:08:40.909Z,791.67
2022-11-26T02:09:40.917Z,792.3
2022-11-26T02:10:40.918Z,792.65
2022-11-26T02:11:40.905Z,792.43
2022-11-26T02:12:40.937Z,793.26
2022-11-26T02:13:40.914Z,793.71
2022-11-26T02:14:41.077Z,793.43
2022-11-26T02:15:40.921Z,794.13
2022-11-26T02:16:40.941Z,793.97
2022-11-26T02:17:40.944Z,794.3
2022-11-26T02:18:40.916Z,794.42
2022-11-26T02:19:40.923Z,794.48
2022-11-26T02:20:40.936Z,794.77
2022-11-26T02:21:40.921Z,795.39
2022-11-26T02:22:40.979Z,795.69
2022-11-26T02:23:40.922Z,795.89
2022-11-26T02:24:41.093Z,795.58
2022-11-26T02:25:40.934Z,795.51
2022-11-26T02:26:40.928Z,795.28
2022-11-26T02:27:40.949Z,795.01
2022-11-26T02:28:40.930Z,794.14
2022-11-26T02:29:40.932Z,793.57
2022-11-26T02:30:40.932Z,793.24
2022-11-26T02:31:41.015Z,792.68
2022-11-26T02:32:40.966Z,792.63
2022-11-26T02:33:40.936Z,791.74
2022-11-26T02:34:41.276Z,792.07
2022-11-26T02:35:40.945Z,791.76
2022-11-26T02:36:40.949Z,791.29
2022-11-26T02:37:40.963Z,791.59
2022-11-26T02:38:40.970Z,792.33
2022-11-26T02:39:40.951Z,791.93
2022-11-26T02:40:40.944Z,791.66
2022-11-26T02:41:40.952Z,791.26
2022-11-26T02:42:40.974Z,791.97
2022-11-26T02:43:40.954Z,792.73
2022-11-26T02:44:41.032Z,792.35
2022-11-26T02:45:41.029Z,793.6
2022-11-26T02:46:40.951Z,794.1
2022-11-26T02:47:40.975Z,794.86
2022-11-26T02:48:40.963Z,795.41
2022-11-26T02:49:40.961Z,795.85
2022-11-26T02:50:41.001Z,796.13
2022-11-26T02:51:43.709Z,796.25
2022-11-26T02:52:40.991Z,797.62
2022-11-26T02:53:40.970Z,798.29
2022-11-26T02:54:41.248Z,799.54
2022-11-26T02:55:40.973Z,799.56
2022-11-26T02:56:40.972Z,800.19
2022-11-26T02:57:41.007Z,800.8
2022-11-26T02:58:40.968Z,801.45
2022-11-26T02:59:40.973Z,801.93
2022-11-26T03:00:40.998Z,802.39
2022-11-26T03:01:40.981Z,802.89
2022-11-26T03:02:42.278Z,803.3
2022-11-26T03:03:41.068Z,803.81
2022-11-26T03:04:41.275Z,804.71
2022-11-26T03:05:40.975Z,805.27
2022-11-26T03:06:40.981Z,804.92
2022-11-26T03:07:41.158Z,806.01
2022-11-26T03:08:40.985Z,806.57
2022-11-26T03:09:41.001Z,807.04
2022-11-26T03:10:41.015Z,807.25
2022-11-26T03:11:41.002Z,807.5
2022-11-26T03:12:40.994Z,807.54
2022-11-26T03:13:43.894Z,807.19
2022-11-26T03:14:40.992Z,807.99
2022-11-26T03:15:40.997Z,807.8
2022-11-26T03:16:41.050Z,807.84
2022-11-26T03:17:40.997Z,808.14
2022-11-26T03:18:41.027Z,808.58
2022-11-26T03:19:40.995Z,808.57
2022-11-26T03:20:40.994Z,809.02
2022-11-26T03:21:41.004Z,808.86
2022-11-26T03:22:41.003Z,808.07
2022-11-26T03:23:41.002Z,808.01
2022-11-26T03:24:43.834Z,808.02
2022-11-26T03:25:41.002Z,807.11
2022-11-26T03:26:41.038Z,806.82
2022-11-26T03:27:41.009Z,806.34
2022-11-26T03:28:41.018Z,805.53
2022-11-26T03:29:41.016Z,805.57
2022-11-26T03:30:41.008Z,804.98
2022-11-26T03:31:41.210Z,804.05
2022-11-26T03:32:41.015Z,803.8
2022-11-26T03:33:41.012Z,803.21
2022-11-26T03:34:41.175Z,802.98
2022-11-26T03:35:41.021Z,802.25
2022-11-26T03:36:41.022Z,801.64
2022-11-26T03:37:41.019Z,801.34
2022-11-26T03:38:41.056Z,800.7
2022-11-26T03:39:41.026Z,800.22
2022-11-26T03:40:41.030Z,798.9
2022-11-26T03:41:41.029Z,797.66
2022-11-26T03:42:41.055Z,797.16
2022-11-26T03:43:41.029Z,795.58
2022-11-26T03:44:41.097Z,794.49
2022-11-26T03:45:41.053Z,793.54
2022-11-26T03:46:41.037Z,793.18
2022-11-26T03:47:41.044Z,792.64
2022-11-26T03:48:41.031Z,791.6
2022-11-26T03:49:41.041Z,791.61
2022-11-26T03:50:41.038Z,791.19
2022-11-26T03:51:41.040Z,790.49
2022-11-26T03:52:41.047Z,789.72
2022-11-26T03:53:41.038Z,789.42
2022-11-26T03:54:41.065Z,789.11
2022-11-26T03:55:41.053Z,789.46
2022-11-26T03:56:44.206Z,789.11
2022-11-26T03:57:41.055Z,788.81
2022-11-26T03:58:41.117Z,788.99
2022-11-26T03:59:41.053Z,789.46
2022-11-26T04:00:41.060Z,789.4
2022-11-26T04:01:41.150Z,789.35
2022-11-26T04:02:41.145Z,789.79
2022-11-26T04:03:41.060Z,789.66
2022-11-26T04:04:41.185Z,789.05
2022-11-26T04:05:41.077Z,789.25
2022-11-26T04:06:41.062Z,788.55
2022-11-26T04:07:41.160Z,788.01
2022-11-26T04:08:41.060Z,787.67
2022-11-26T04:09:41.068Z,787.71
2022-11-26T04:10:41.061Z,787.74
2022-11-26T04:11:41.066Z,787.29
2022-11-26T04:12:41.075Z,787.26
2022-11-26T04:13:41.073Z,786.93
2022-11-26T04:14:41.479Z,786.31
2022-11-26T04:15:41.071Z,785.9
2022-11-26T04:16:41.129Z,785.57
2022-11-26T04:17:41.071Z,785.92
2022-11-26T04:18:41.074Z,784.83
2022-11-26T04:19:41.073Z,785.51
2022-11-26T04:20:41.086Z,785.21
2022-11-26T04:21:41.089Z,785.05
2022-11-26T04:22:41.082Z,785.28
2022-11-26T04:23:41.078Z,785.1
2022-11-26T04:24:41.234Z,785.6
2022-11-26T04:25:41.083Z,785.86
2022-11-26T04:26:41.095Z,785.79
2022-11-26T04:27:41.094Z,785.93
2022-11-26T04:28:41.088Z,786.77
2022-11-26T04:29:41.091Z,787.64
2022-11-26T04:30:41.149Z,788.27
2022-11-26T04:31:41.203Z,788.85
2022-11-26T04:32:41.098Z,789.68
2022-11-26T04:33:41.093Z,790.26
2022-11-26T04:34:41.196Z,791.01
2022-11-26T04:35:41.098Z,790.53
2022-11-26T04:36:41.101Z,791.73
2022-11-26T04:37:41.106Z,792.17
2022-11-26T04:38:41.103Z,793.22
2022-11-26T04:39:41.099Z,793.67
2022-11-26T04:40:41.106Z,794.31
2022-11-26T04:41:41.108Z,794.3
2022-11-26T04:42:41.109Z,794.79
2022-11-26T04:43:41.109Z,795.36
2022-11-26T04:44:41.110Z,795.85
2022-11-26T04:45:41.153Z,796.77
2022-11-26T04:46:41.133Z,797.04
2022-11-26T04:47:43.020Z,797.94
2022-11-26T04:48:41.117Z,798.91
2022-11-26T04:49:41.120Z,799.31
2022-11-26T04:50:41.112Z,799.97
2022-11-26T04:51:41.113Z,800.7
2022-11-26T04:52:41.118Z,801.35
2022-11-26T04:53:41.121Z,802.18
2022-11-26T04:54:41.224Z,802.63
2022-11-26T04:55:41.119Z,803.67
2022-11-26T04:56:41.125Z,804.34
2022-11-26T04:57:41.124Z,804.89
2022-11-26T04:58:41.122Z,805.86
2022-11-26T04:59:41.131Z,806.51
2022-11-26T05:00:41.199Z,806.46
2022-11-26T05:01:41.224Z,807.32
2022-11-26T05:02:41.254Z,808.37
2022-11-26T05:03:41.134Z,808.78
2022-11-26T05:04:41.228Z,808.65
2022-11-26T05:05:41.131Z,809.5
2022-11-26T05:06:41.138Z,809.68
2022-11-26T05:07:41.232Z,810.32
2022-11-26T05:08:41.144Z,810.9
2022-11-26T05:09:41.139Z,811.52
2022-11-26T05:10:41.143Z,812.03
2022-11-26T05:11:41.155Z,811.72
2022-11-26T05:12:41.144Z,812.32
2022-11-26T05:13:41.148Z,813.07
2022-11-26T05:14:41.181Z,812.87
2022-11-26T05:15:41.143Z,813.6
2022-11-26T05:16:41.207Z,813.8
2022-11-26T05:17:41.158Z,814.22
2022-11-26T05:18:44.020Z,813.77
2022-11-26T05:19:41.159Z,814.9
2022-11-26T05:20:41.159Z,814.72
2022-11-26T05:21:41.161Z,814.87
2022-11-26T05:22:41.155Z,815.14
2022-11-26T05:23:41.162Z,815.08
2022-11-26T05:24:41.271Z,815.41
2022-11-26T05:25:41.165Z,815.8
2022-11-26T05:26:41.164Z,815.49
2022-11-26T05:27:41.167Z,815.9
2022-11-26T05:28:41.161Z,815.61
2022-11-26T05:29:44.223Z,815.83
2022-11-26T05:30:41.165Z,815.63
2022-11-26T05:31:41.241Z,815.57
2022-11-26T05:32:41.166Z,815.27
2022-11-26T05:33:41.195Z,814.98
2022-11-26T05:34:41.428Z,814.55
2022-11-26T05:35:41.175Z,814.92
2022-11-26T05:36:41.173Z,814.73
2022-11-26T05:37:41.178Z,814
2022-11-26T05:38:41.204Z,814.13
2022-11-26T05:39:41.178Z,814.31
2022-11-26T05:40:43.964Z,814.3
2022-11-26T05:41:41.183Z,814.79
2022-11-26T05:42:41.187Z,814
2022-11-26T05:43:41.213Z,814.59
2022-11-26T05:44:41.383Z,814.55
2022-11-26T05:45:41.224Z,814.49
2022-11-26T05:46:41.187Z,814.56
2022-11-26T05:47:41.192Z,814.57
2022-11-26T05:48:41.213Z,814.98
2022-11-26T05:49:41.196Z,814.72
2022-11-26T05:50:41.221Z,814.37
2022-11-26T05:51:44.205Z,814.72
2022-11-26T05:52:41.197Z,815.74
2022-11-26T05:53:41.226Z,816.02
2022-11-26T05:54:41.446Z,816.31
2022-11-26T05:55:41.206Z,816.96
2022-11-26T05:56:41.205Z,817.39
2022-11-26T05:57:41.208Z,818.44
2022-11-26T05:58:41.245Z,818.44
2022-11-26T05:59:41.208Z,818.3
2022-11-26T06:00:41.209Z,818.17
2022-11-26T06:01:41.212Z,818.4
2022-11-26T06:02:41.334Z,818.47
2022-11-26T06:03:41.288Z,817.54
2022-11-26T06:04:41.514Z,817.52
2022-11-26T06:05:41.208Z,818.92
2022-11-26T06:06:41.243Z,819.67
2022-11-26T06:07:44.488Z,819.5
2022-11-26T06:08:41.238Z,819.53
2022-11-26T06:09:41.412Z,819.8
2022-11-26T06:10:41.224Z,819.36
2022-11-26T06:11:41.226Z,819.92
2022-11-26T06:12:41.228Z,820.15
2022-11-26T06:13:41.251Z,820.75
2022-11-26T06:14:43.295Z,820.81
2022-11-26T06:15:41.227Z,820.99
2022-11-26T06:16:41.262Z,821.18
2022-11-26T06:17:41.225Z,821.37
2022-11-26T06:18:41.255Z,821.53
2022-11-26T06:19:41.235Z,821.61
2022-11-26T06:20:41.231Z,821.79
2022-11-26T06:21:41.230Z,822.39
2022-11-26T06:22:41.257Z,822.65
2022-11-26T06:23:51.813Z,822.77
2022-11-26T06:24:41.260Z,823.56
2022-11-26T06:25:41.237Z,824.12
2022-11-26T06:26:41.245Z,824.3
2022-11-26T06:27:41.243Z,823.71
2022-11-26T06:28:41.249Z,824.25
2022-11-26T06:29:41.241Z,824.29
2022-11-26T06:30:41.242Z,824.15
2022-11-26T06:31:41.328Z,824.46
2022-11-26T06:32:41.264Z,824.68
2022-11-26T06:33:41.252Z,824.67
2022-11-26T06:34:43.830Z,824.39
2022-11-26T06:35:41.259Z,824.83
2022-11-26T06:36:41.249Z,825.26
2022-11-26T06:37:41.255Z,825.28
2022-11-26T06:38:41.277Z,825.43
2022-11-26T06:39:41.257Z,825.13
2022-11-26T06:40:41.259Z,825.68
2022-11-26T06:41:41.258Z,825.99
2022-11-26T06:42:41.264Z,825.48
2022-11-26T06:43:41.271Z,825.18
2022-11-26T06:44:41.472Z,825.21
2022-11-26T06:45:41.301Z,824.95
2022-11-26T06:46:41.273Z,825.15
2022-11-26T06:47:41.274Z,824.94
2022-11-26T06:48:41.270Z,825.06
2022-11-26T06:49:41.327Z,825.25
2022-11-26T06:50:41.278Z,824.5
2022-11-26T06:51:41.270Z,824.82
2022-11-26T06:52:41.275Z,824.83
2022-11-26T06:53:41.273Z,824.75
2022-11-26T06:54:41.347Z,824.97
2022-11-26T06:55:41.283Z,825.06
2022-11-26T06:56:41.279Z,824.98
2022-11-26T06:57:41.285Z,825.11
2022-11-26T06:58:41.291Z,824.88
2022-11-26T06:59:41.291Z,825.26
2022-11-26T07:00:41.287Z,825.36
2022-11-26T07:01:41.354Z,824.59
2022-11-26T07:02:41.313Z,824.16
2022-11-26T07:03:41.287Z,824.38
2022-11-26T07:04:41.431Z,823.63
2022-11-26T07:05:41.288Z,823.6
2022-11-26T07:06:41.295Z,823.41
2022-11-26T07:07:41.350Z,822.61
2022-11-26T07:08:41.294Z,821.89
2022-11-26T07:09:41.295Z,821.25
2022-11-26T07:10:44.883Z,821.17
2022-11-26T07:11:41.306Z,821.57
2022-11-26T07:12:41.299Z,821.54
2022-11-26T07:13:41.300Z,821.04
2022-11-26T07:14:41.611Z,821.04
2022-11-26T07:15:41.331Z,820.84
2022-11-26T07:16:41.440Z,820.01
2022-11-26T07:17:41.321Z,819.59
2022-11-26T07:18:41.326Z,819.28
2022-11-26T07:19:41.314Z,819.1
2022-11-26T07:20:41.310Z,817.98
2022-11-26T07:21:41.315Z,818.15
2022-11-26T07:22:41.321Z,817.58
2022-11-26T07:23:41.319Z,816.95
2022-11-26T07:24:41.558Z,816.51
2022-11-26T07:25:41.325Z,815.69
2022-11-26T07:26:41.349Z,815.26
2022-11-26T07:27:41.329Z,814.62
2022-11-26T07:28:41.324Z,813.33
2022-11-26T07:29:41.328Z,812.47
2022-11-26T07:30:41.333Z,811.72
2022-11-26T07:31:41.405Z,810.99
2022-11-26T07:32:41.336Z,810.07
2022-11-26T07:33:41.335Z,809.7
2022-11-26T07:34:41.553Z,809.83
2022-11-26T07:35:41.336Z,809.14
2022-11-26T07:36:41.338Z,809.27
2022-11-26T07:37:41.343Z,808.83
2022-11-26T07:38:41.335Z,808.04
2022-11-26T07:39:41.339Z,807.94
2022-11-26T07:40:41.341Z,807.76
2022-11-26T07:41:41.343Z,810.73
2022-11-26T07:42:41.373Z,813.67
2022-11-26T07:43:41.362Z,818.48
2022-11-26T07:44:41.347Z,823.5
2022-11-26T07:45:41.736Z,829.65
2022-11-26T07:46:41.419Z,838.15
2022-11-26T07:47:41.347Z,847.2
2022-11-26T07:48:41.355Z,856.2
2022-11-26T07:49:41.351Z,864.9
2022-11-26T07:50:41.354Z,873.86
2022-11-26T07:51:41.360Z,880.77
2022-11-26T07:52:41.354Z,886.37
2022-11-26T07:53:41.362Z,893.12
2022-11-26T07:54:41.479Z,900.25
2022-11-26T07:55:41.362Z,905.29
2022-11-26T07:56:44.118Z,908.33
2022-11-26T07:57:41.361Z,908.43
2022-11-26T07:58:41.406Z,907.78
2022-11-26T07:59:41.363Z,906.49
2022-11-26T08:00:41.367Z,905.97
2022-11-26T08:01:41.418Z,904.94
2022-11-26T08:02:41.443Z,903.47
2022-11-26T08:03:41.381Z,901.38
2022-11-26T08:04:41.378Z,898.97
2022-11-26T08:05:41.382Z,896.54
2022-11-26T08:06:41.380Z,894.39
2022-11-26T08:07:44.568Z,892.48
2022-11-26T08:08:41.380Z,890.85
2022-11-26T08:09:41.385Z,889.14
2022-11-26T08:10:41.386Z,887.4
2022-11-26T08:11:41.390Z,886.05
2022-11-26T08:12:41.384Z,885.29
2022-11-26T08:13:41.399Z,884.15
2022-11-26T08:14:41.412Z,883.13
2022-11-26T08:15:41.385Z,882.64
2022-11-26T08:16:41.477Z,882.15
2022-11-26T08:17:41.398Z,880.9
2022-11-26T08:18:44.501Z,880.56
2022-11-26T08:19:41.393Z,880.08
2022-11-26T08:20:41.394Z,879.73
2022-11-26T08:21:41.411Z,879.13
2022-11-26T08:22:41.406Z,878.12
2022-11-26T08:23:41.408Z,877.61
2022-11-26T08:24:41.531Z,876.92
2022-11-26T08:25:53.458Z,876.05
2022-11-26T08:26:46.722Z,874.62
2022-11-26T08:27:46.718Z,873.34
2022-11-26T08:28:46.719Z,871.88
2022-11-26T08:29:46.741Z,872.23
2022-11-26T08:30:46.716Z,871.38
2022-11-26T08:31:46.952Z,871.44
2022-11-26T08:32:46.722Z,870.51
2022-11-26T08:33:46.712Z,869.96
2022-11-26T08:34:49.882Z,869.74
2022-11-26T08:36:05.823Z,869.6
2022-11-26T08:36:46.724Z,869.53
2022-11-26T08:37:46.730Z,869.26
2022-11-26T08:38:46.734Z,869.85
2022-11-26T08:39:46.725Z,869.75
2022-11-26T08:40:46.727Z,869.39
2022-11-26T08:41:51.886Z,869.73
2022-11-26T08:42:46.728Z,869.1
2022-11-26T08:44:46.737Z,869.98
2022-11-26T08:45:49.926Z,870.82
2022-11-26T08:46:46.737Z,871.51
2022-11-26T08:47:46.737Z,871.99
2022-11-26T08:48:46.743Z,872.56
2022-11-26T08:49:46.763Z,872.97
2022-11-26T08:50:46.740Z,873.71
2022-11-26T08:51:46.748Z,873.6
2022-11-26T08:52:46.752Z,873.21
2022-11-26T08:53:46.744Z,873.11
2022-11-26T08:54:47.147Z,873.27
2022-11-26T08:55:59.914Z,873.1
2022-11-26T08:56:46.755Z,873.28
2022-11-26T08:57:46.753Z,873.86
2022-11-26T08:58:46.756Z,873.99
2022-11-26T08:59:46.802Z,873.61
2022-11-26T09:00:46.766Z,874.5
2022-11-26T09:01:46.867Z,873.87
2022-11-26T09:02:46.785Z,874.53
2022-11-26T09:03:46.758Z,874.35
2022-11-26T09:04:46.793Z,874.68
2022-11-26T09:05:46.781Z,874.54
2022-11-26T09:06:46.776Z,874.54
2022-11-26T09:07:49.080Z,874.29
2022-11-26T09:08:46.781Z,873.79
2022-11-26T09:09:46.801Z,873.45
2022-11-26T09:10:46.769Z,873.27
2022-11-26T09:11:46.773Z,873.06
2022-11-26T09:12:46.780Z,873.49
2022-11-26T09:13:46.773Z,873.33
2022-11-26T09:14:46.839Z,873.37
2022-11-26T09:15:46.793Z,872.82
2022-11-26T09:16:46.819Z,872.93
2022-11-26T09:17:46.832Z,873.68
2022-11-26T09:18:46.786Z,874.35
2022-11-26T09:19:46.815Z,875.32
2022-11-26T09:20:46.784Z,876.56
2022-11-26T09:21:46.802Z,877.44
2022-11-26T09:22:46.824Z,878.56
2022-11-26T09:23:46.793Z,879.99
2022-11-26T09:24:46.829Z,880.94
2022-11-26T09:25:46.792Z,881.62
2022-11-26T09:26:46.792Z,881.19
2022-11-26T09:27:46.796Z,881.9
2022-11-26T09:28:46.799Z,881.94
2022-11-26T09:29:50.800Z,881.58
2022-11-26T09:30:47.018Z,881.56
2022-11-26T09:32:47.248Z,881.42
2022-11-26T09:33:46.830Z,881.25
2022-11-26T09:34:46.847Z,881.22
2022-11-26T09:35:46.805Z,880.97
2022-11-26T09:36:46.808Z,880.63
2022-11-26T09:37:51.329Z,880.42
2022-11-26T09:38:46.819Z,880.56
2022-11-26T09:39:46.840Z,880
2022-11-26T09:40:46.821Z,879.44
2022-11-26T09:41:46.824Z,879.06
2022-11-26T09:42:46.824Z,879.47
2022-11-26T09:43:47.316Z,878.91
2022-11-26T09:44:46.840Z,879.05
2022-11-26T09:45:46.894Z,878.62
2022-11-26T09:47:10.271Z,878.64
2022-11-26T09:47:49.809Z,878.33
2022-11-26T09:48:46.833Z,878.51
2022-11-26T09:49:46.879Z,878.21
2022-11-26T09:50:46.835Z,877.93
2022-11-26T09:51:46.832Z,877.01
2022-11-26T09:52:46.838Z,877.12
2022-11-26T09:53:46.839Z,876.47
2022-11-26T09:54:46.863Z,876.4
2022-11-26T09:55:46.849Z,876.1
2022-11-26T09:56:46.836Z,875.66
2022-11-26T09:57:46.840Z,876.03
2022-11-26T09:58:46.841Z,875.64
2022-11-26T09:59:46.908Z,875.94
2022-11-26T10:00:46.921Z,875.41
2022-11-26T10:01:46.935Z,875.01
2022-11-26T10:02:46.856Z,874.82
2022-11-26T10:03:46.847Z,874.46
2022-11-26T10:04:49.874Z,873.8
2022-11-26T10:05:46.859Z,873.65
2022-11-26T10:06:46.857Z,873.51
2022-11-26T10:07:49.926Z,873.77
2022-11-26T10:08:46.865Z,873.66
2022-11-26T10:09:46.877Z,873.94
2022-11-26T10:10:46.864Z,873.92
2022-11-26T10:11:46.866Z,873.81
2022-11-26T10:13:11.148Z,873.39
2022-11-26T10:13:46.861Z,873.69
2022-11-26T10:14:46.889Z,873.66
2022-11-26T10:15:46.875Z,873.66
2022-11-26T10:16:46.953Z,874.18
2022-11-26T10:17:46.877Z,874.86
2022-11-26T10:18:49.905Z,875.01
2022-11-26T10:19:46.903Z,875.41
2022-11-26T10:20:46.898Z,875.82
2022-11-26T10:22:02.250Z,876.19
2022-11-26T10:22:46.880Z,876.51
2022-11-26T10:23:46.930Z,876.42
2022-11-26T10:24:46.907Z,876.66
2022-11-26T10:25:46.883Z,877.12
2022-11-26T10:26:46.888Z,876.92
2022-11-26T10:27:46.881Z,877.41
2022-11-26T10:28:46.990Z,877.33
2022-11-26T10:29:48.446Z,877.43
2022-11-26T10:30:46.898Z,877.96
2022-11-26T10:31:47.028Z,877.84
2022-11-26T10:32:46.892Z,878.17
2022-11-26T10:33:46.902Z,878.16
2022-11-26T10:34:46.897Z,878.12
2022-11-26T10:35:46.898Z,878.39
2022-11-26T10:36:46.932Z,878.02
2022-11-26T10:37:46.906Z,878.02
2022-11-26T10:38:46.907Z,877.73
2022-11-26T10:39:46.911Z,877.85
2022-11-26T10:40:46.900Z,877.54
2022-11-26T10:41:46.905Z,877.41
2022-11-26T10:42:46.907Z,877.43
2022-11-26T10:43:46.916Z,877.45
2022-11-26T10:44:46.915Z,877.57
2022-11-26T10:45:46.923Z,878.25
2022-11-26T10:46:46.967Z,878.14
2022-11-26T10:47:46.923Z,878.65
2022-11-26T10:48:46.916Z,878.77
2022-11-26T10:49:46.915Z,879.44
2022-11-26T16:56:25.052Z,845.49
2022-11-26T16:57:25.019Z,845.48
2022-11-26T16:58:25.014Z,845.91
2022-11-26T16:59:25.015Z,844.87
2022-11-26T17:00:25.014Z,845.58
2022-11-26T17:01:25.037Z,845.31
2022-11-26T17:02:25.145Z,845.42
2022-11-26T17:03:25.162Z,845.52
2022-11-26T17:04:25.030Z,845.28
2022-11-26T17:05:25.031Z,845.86
2022-11-26T17:06:25.056Z,845.57
2022-11-26T17:07:25.078Z,845.55
2022-11-26T17:08:25.032Z,845.58
2022-11-26T17:09:25.029Z,845.22
2022-11-26T17:10:25.032Z,844.77
2022-11-26T17:11:25.058Z,844.62
2022-11-26T17:12:25.055Z,844.56
2022-11-26T17:13:25.042Z,844.61
2022-11-26T17:14:25.044Z,843.91
2022-11-26T17:15:25.044Z,843.22
2022-11-26T17:16:25.127Z,842.64
2022-11-26T17:17:25.218Z,842.07
2022-11-26T17:18:25.042Z,842.15
2022-11-26T17:19:25.053Z,841.58
2022-11-26T17:20:25.054Z,840.34
2022-11-26T17:21:25.080Z,840.47
2022-11-26T17:22:25.052Z,839.78
2022-11-26T17:23:25.050Z,839.73
2022-11-26T17:24:29.970Z,839.51
2022-11-26T17:25:25.049Z,839.33
2022-11-26T17:26:25.135Z,839.06
2022-11-26T17:27:25.058Z,838.78
2022-11-26T17:28:25.083Z,838.52
2022-11-26T17:29:25.074Z,837.56
2022-11-26T17:30:25.056Z,837.12
2022-11-26T17:31:25.159Z,837.25
2022-11-26T17:32:25.063Z,836.55
2022-11-26T17:33:25.069Z,836.26
2022-11-26T17:34:25.064Z,835.72
2022-11-26T17:35:25.068Z,835.13
2022-11-26T17:36:25.093Z,835.91
2022-11-26T17:37:28.191Z,835
2022-11-26T17:38:25.079Z,835.27
2022-11-26T17:39:25.072Z,835.15
2022-11-26T17:40:25.072Z,834.58
2022-11-26T17:41:25.106Z,834.19
2022-11-26T17:42:25.073Z,833.56
2022-11-26T17:43:25.080Z,833.71
2022-11-26T17:44:25.111Z,833.31
2022-11-26T17:45:25.086Z,833.59
2022-11-26T17:46:25.155Z,833.74
2022-11-26T17:47:25.165Z,833.29
2022-11-26T17:48:28.148Z,834.15
2022-11-26T17:49:25.083Z,834.42
2022-11-26T17:50:25.114Z,834.3
2022-11-26T17:51:25.124Z,833.92
2022-11-26T17:52:25.094Z,834.08
2022-11-26T17:53:25.096Z,834.21
2022-11-26T17:54:25.097Z,833.53
2022-11-26T17:55:25.093Z,834.09
2022-11-26T17:56:25.116Z,834.03
2022-11-26T17:57:25.105Z,833.56
2022-11-26T17:58:25.095Z,833.29
2022-11-26T17:59:28.192Z,833.24
2022-11-26T18:00:25.097Z,833
2022-11-26T18:01:25.139Z,832.7
2022-11-26T18:02:25.155Z,832.88
2022-11-26T18:03:25.111Z,832.13
2022-11-26T18:04:25.106Z,831.81
2022-11-26T18:05:25.109Z,831.7
2022-11-26T18:06:25.138Z,831.73
2022-11-26T18:07:25.135Z,831.53
2022-11-26T18:08:25.113Z,831.04
2022-11-26T18:09:25.112Z,831.25
2022-11-26T18:10:27.894Z,830.9
2022-11-26T18:11:25.140Z,830.93
2022-11-26T18:12:25.710Z,830.75
2022-11-26T18:13:25.119Z,830.61
2022-11-26T18:14:25.118Z,830.01
2022-11-26T18:15:25.152Z,830.21
2022-11-26T18:16:25.196Z,829.64
2022-11-26T18:17:25.121Z,829.82
2022-11-26T18:18:25.148Z,829.55
2022-11-26T18:19:25.123Z,829.68
2022-11-26T18:20:25.128Z,829.83
2022-11-26T18:21:27.903Z,829.79
2022-11-26T18:22:25.132Z,830.11
2022-11-26T18:23:25.136Z,829.67
2022-11-26T18:24:25.133Z,829.7
2022-11-26T18:25:25.153Z,829.4
2022-11-26T18:26:25.163Z,828.78
2022-11-26T18:27:25.145Z,828.81
2022-11-26T18:28:25.178Z,829.38
2022-11-26T18:29:25.144Z,828.25
2022-11-26T18:30:25.325Z,828.66
2022-11-26T18:31:25.246Z,828.51
2022-11-26T18:32:25.148Z,828.22
2022-11-26T18:33:25.151Z,828.41
2022-11-26T18:34:25.158Z,828.58
2022-11-26T18:35:25.151Z,828.09
2022-11-26T18:36:25.176Z,828.03
2022-11-26T18:37:25.148Z,828.16
2022-11-26T18:38:25.160Z,827.76
2022-11-26T18:39:25.151Z,827.75